Time;durP1;ratioP1;P1;durP2;ratioP2;P2;SDS_P1;SDS_P2;PMS_P1;PMS_P2;Temp;Humidity;BMP_temperature;BMP_pressure;BME280_temperature;BME280_humidity;BME280_pressure;Samples;Min_cycle;Max_cycle;Signal;HPM_P1;HPM_P2
2022/08/21 00:01:25;;;;;;;;;6.25;3.00;;;;;21.77;43.89;101147.63;5074344;27;65797;-57
2022/08/21 00:03:51;;;;;;;;;7.25;4.00;;;;;21.77;44.04;101141.47;5081251;28;45523;-57
2022/08/21 00:06:16;;;;;;;;;4.50;4.50;;;;;21.74;44.12;101133.66;5052395;28;45408;-57
2022/08/21 00:08:42;;;;;;;;;5.50;5.50;;;;;21.73;44.52;101138.16;5062729;28;45476;-56
2022/08/21 00:11:08;;;;;;;;;6.75;5.50;;;;;21.71;44.64;101142.72;5074294;28;45233;-57
2022/08/21 00:13:34;;;;;;;;;6.50;5.25;;;;;21.74;44.25;101139.00;5066648;27;45249;-58
2022/08/21 00:16:00;;;;;;;;;6.75;4.00;;;;;21.72;44.79;101136.44;5054924;28;45452;-58
2022/08/21 00:18:26;;;;;;;;;6.50;4.00;;;;;21.70;44.53;101134.84;5076022;27;46045;-57
2022/08/21 00:20:51;;;;;;;;;6.50;4.50;;;;;21.68;44.89;101126.94;5081103;27;48049;-58
2022/08/21 00:23:17;;;;;;;;;5.25;3.00;;;;;21.67;44.66;101127.03;5081561;27;45396;-57
2022/08/21 00:25:43;;;;;;;;;4.00;4.00;;;;;21.66;45.13;101125.38;5073507;28;45391;-58
2022/08/21 00:28:08;;;;;;;;;4.75;3.00;;;;;21.65;44.94;101126.31;5046217;28;46305;-57
2022/08/21 00:30:34;;;;;;;;;6.25;3.00;;;;;21.64;44.74;101125.47;5061524;27;45488;-57
2022/08/21 00:33:00;;;;;;;;;6.25;2.25;;;;;21.62;44.78;101127.38;5065864;27;66133;-58
2022/08/21 00:35:29;;;;;;;;;6.50;3.75;;;;;21.62;45.04;101124.72;5065455;28;45441;-57
2022/08/21 00:37:54;;;;;;;;;7.75;4.25;;;;;21.64;45.08;101124.59;5064445;27;46273;-58
2022/08/21 00:40:26;;;;;;;;;4.75;3.75;;;;;21.65;45.08;101129.81;5062839;28;45311;-58
2022/08/21 00:42:51;;;;;;;;;4.00;3.00;;;;;21.63;45.30;101129.06;5080733;27;45271;-58
2022/08/21 00:45:17;;;;;;;;;5.25;4.00;;;;;21.61;45.69;101133.66;5073567;28;45324;-58
2022/08/21 00:47:42;;;;;;;;;4.50;4.00;;;;;21.56;45.38;101125.94;5063466;27;66631;-58
2022/08/21 00:50:09;;;;;;;;;4.75;2.50;;;;;21.56;45.21;101130.44;5051845;28;45838;-58
2022/08/21 00:52:37;;;;;;;;;5.75;3.75;;;;;21.54;45.32;101124.38;5049309;27;45225;-58
2022/08/21 00:55:04;;;;;;;;;3.00;1.75;;;;;21.52;45.65;101121.81;5062840;28;45365;-58
2022/08/21 00:57:34;;;;;;;;;3.00;3.00;;;;;21.53;45.43;101112.00;5048987;27;45444;-58
2022/08/21 01:00:04;;;;;;;;;6.50;4.00;;;;;21.50;45.46;101113.06;5053085;28;45256;-58
2022/08/21 01:02:30;;;;;;;;;3.00;2.00;;;;;21.47;45.20;101109.75;5068761;27;45372;-58
2022/08/21 01:04:55;;;;;;;;;5.00;3.00;;;;;21.46;45.51;101108.03;5067576;28;70955;-58
2022/08/21 01:07:20;;;;;;;;;6.00;3.00;;;;;21.45;46.07;101109.81;5079537;27;73696;-58
2022/08/21 01:09:47;;;;;;;;;3.00;1.75;;;;;21.45;45.90;101116.97;5073511;28;68283;-57
2022/08/21 01:12:13;;;;;;;;;3.00;3.00;;;;;21.43;45.84;101115.25;5068793;27;45281;-58
2022/08/21 01:14:41;;;;;;;;;6.75;2.50;;;;;21.45;45.58;101115.16;5062622;28;45290;-58
2022/08/21 01:17:08;;;;;;;;;3.50;3.00;;;;;21.45;45.51;101123.13;5058755;28;46861;-59
2022/08/21 01:19:34;;;;;;;;;5.50;3.25;;;;;21.43;45.82;101117.06;5080873;28;45291;-58
2022/08/21 01:21:59;;;;;;;;;2.00;2.00;;;;;21.44;45.96;101124.06;5058491;28;45284;-58
2022/08/21 01:24:25;;;;;;;;;2.00;2.00;;;;;21.42;45.88;101120.66;5053999;28;45349;-58
2022/08/21 01:26:50;;;;;;;;;3.50;2.50;;;;;21.37;46.19;101120.13;5090066;27;45451;-58
2022/08/21 01:29:31;;;;;;;;;3.75;3.00;;;;;21.37;45.89;101125.44;5080085;28;45364;-58
2022/08/21 01:31:58;;;;;;;;;9.00;4.00;;;;;21.35;45.74;101124.69;5078671;27;45457;-59
2022/08/21 01:34:24;;;;;;;;;4.00;4.00;;;;;21.32;46.25;101132.88;5068630;28;45399;-58
2022/08/21 01:36:49;;;;;;;;;2.00;2.00;;;;;21.30;45.97;101141.00;5063967;28;45423;-58
2022/08/21 01:39:15;;;;;;;;;5.50;3.00;;;;;21.27;46.36;101132.34;5073061;27;70236;-58
2022/08/21 01:41:40;;;;;;;;;4.00;4.00;;;;;21.23;46.83;101127.22;5080156;28;45398;-58
2022/08/21 01:44:06;;;;;;;;;5.25;3.75;;;;;21.23;46.11;101131.69;5073715;28;45388;-58
2022/08/21 01:46:32;;;;;;;;;6.25;3.00;;;;;21.21;46.15;101136.25;5061665;28;46393;-58
2022/08/21 01:48:57;;;;;;;;;5.25;2.00;;;;;21.21;46.17;101136.25;5073075;27;45393;-58
2022/08/21 01:51:22;;;;;;;;;4.75;3.00;;;;;21.20;46.58;101132.75;5079803;27;45327;-57
2022/08/21 01:53:48;;;;;;;;;4.50;2.25;;;;;21.17;46.80;101126.75;5079459;27;64555;-58
2022/08/21 01:56:15;;;;;;;;;3.00;2.50;;;;;21.16;46.51;101133.91;5067746;27;46149;-58
2022/08/21 01:58:42;;;;;;;;;4.00;2.75;;;;;21.14;46.55;101122.50;5068054;28;45184;-58
2022/08/21 02:01:09;;;;;;;;;4.75;2.25;;;;;21.13;46.34;101120.78;5066380;27;45428;-58
2022/08/21 02:03:34;;;;;;;;;3.50;2.75;;;;;21.13;46.50;101120.78;5079195;27;45569;-58
2022/08/21 02:06:00;;;;;;;;;4.25;3.00;;;;;21.13;46.45;101120.78;5066989;28;46025;-58
2022/08/21 02:08:25;;;;;;;;;5.50;3.00;;;;;21.13;46.52;101117.28;5071050;28;69111;-58
2022/08/21 02:10:52;;;;;;;;;5.50;3.00;;;;;21.13;46.24;101117.28;5054932;28;54750;-57
2022/08/21 02:13:17;;;;;;;;;5.00;4.00;;;;;21.14;46.70;101119.84;5054858;27;45700;-58
2022/08/21 02:15:43;;;;;;;;;4.00;2.25;;;;;21.15;46.74;101120.69;5061003;28;46107;-58
2022/08/21 02:18:08;;;;;;;;;2.75;2.25;;;;;21.13;46.75;101112.81;5062126;28;45336;-58
2022/08/21 02:20:39;;;;;;;;;4.75;2.50;;;;;21.15;46.84;101104.72;5059535;28;45379;-57
2022/08/21 02:23:06;;;;;;;;;7.00;3.00;;;;;21.14;46.82;101108.31;5072547;28;45331;-58
2022/08/21 02:25:32;;;;;;;;;6.50;3.00;;;;;21.14;46.43;101111.88;5078557;27;47232;-58
2022/08/21 02:27:58;;;;;;;;;4.75;3.75;;;;;21.13;47.00;101110.16;5074503;28;45503;-58
2022/08/21 02:30:27;;;;;;;;;4.50;4.00;;;;;21.14;46.53;101103.00;5076389;27;45445;-58
2022/08/21 02:32:52;;;;;;;;;4.25;3.00;;;;;21.14;46.88;101103.00;5077555;28;45457;-58
2022/08/21 02:35:18;;;;;;;;;3.25;3.25;;;;;21.15;46.99;101099.41;5076552;27;45430;-58
2022/08/21 02:37:55;;;;;;;;;4.75;3.25;;;;;21.13;46.57;101101.31;5075861;27;45316;-56
2022/08/21 02:40:30;;;;;;;;;4.00;2.50;;;;;21.12;46.55;101105.75;5068964;27;45530;-57
2022/08/21 02:42:56;;;;;;;;;3.00;3.00;;;;;21.13;46.84;101107.47;5076358;27;45325;-57
2022/08/21 02:45:21;;;;;;;;;4.00;4.00;;;;;21.13;46.63;101101.31;5070744;28;46305;-57
2022/08/21 02:47:56;;;;;;;;;2.75;2.50;;;;;21.11;47.00;101106.72;5075411;28;45221;-57
2022/08/21 02:50:31;;;;;;;;;3.00;3.00;;;;;21.12;46.60;101111.09;5056024;28;45335;-57
2022/08/21 02:52:56;;;;;;;;;5.25;2.00;;;;;21.12;46.73;101113.75;5066117;28;45415;-57
2022/08/21 02:55:27;;;;;;;;;3.50;2.50;;;;;21.14;46.69;101113.66;5077249;28;74817;-57
2022/08/21 02:57:54;;;;;;;;;2.50;2.50;;;;;21.14;46.88;101119.84;5061303;28;45429;-57
2022/08/21 03:00:21;;;;;;;;;4.25;2.50;;;;;21.14;46.89;101116.31;5042949;28;45381;-57
2022/08/21 03:02:47;;;;;;;;;3.75;3.50;;;;;21.11;46.79;101104.06;5060620;28;45467;-57
2022/08/21 03:05:14;;;;;;;;;6.50;3.00;;;;;21.09;46.72;101111.31;5065519;28;45526;-57
2022/08/21 03:07:41;;;;;;;;;4.75;3.00;;;;;21.07;47.36;101110.56;5077385;28;45245;-57
2022/08/21 03:10:08;;;;;;;;;5.00;3.50;;;;;21.06;46.75;101114.16;5076377;27;45362;-57
2022/08/21 03:12:35;;;;;;;;;4.00;4.00;;;;;21.07;47.18;101112.34;5060526;28;45287;-56
2022/08/21 03:15:01;;;;;;;;;4.00;4.00;;;;;21.04;47.10;101110.75;5078230;27;47098;-57
2022/08/21 03:17:27;;;;;;;;;4.75;3.50;;;;;21.04;47.06;101103.63;5070944;28;45405;-57
2022/08/21 03:19:52;;;;;;;;;5.50;3.25;;;;;21.02;47.33;101102.88;5082143;27;45754;-57
2022/08/21 03:22:17;;;;;;;;;5.25;5.00;;;;;21.01;47.63;101105.63;5060147;28;47871;-57
2022/08/21 03:24:43;;;;;;;;;4.50;4.50;;;;;20.95;47.13;101106.03;5069709;28;68143;-57
2022/08/21 03:27:08;;;;;;;;;3.50;3.50;;;;;20.92;47.47;101098.25;5057231;28;45451;-57
2022/08/21 03:29:33;;;;;;;;;5.50;3.50;;;;;20.90;47.62;101093.00;5076317;27;56840;-57
2022/08/21 03:31:59;;;;;;;;;8.75;4.00;;;;;20.87;47.72;101093.22;5048119;28;71750;-57
2022/08/21 03:34:24;;;;;;;;;7.75;5.25;;;;;20.86;47.72;101096.84;5046775;27;63867;-57
2022/08/21 03:36:49;;;;;;;;;6.00;4.00;;;;;20.86;47.53;101094.19;5070168;27;45241;-57
2022/08/21 03:39:16;;;;;;;;;5.50;4.00;;;;;20.85;47.92;101089.78;5081487;27;45244;-57
2022/08/21 03:41:42;;;;;;;;;4.00;4.00;;;;;20.83;48.00;101083.72;5057970;27;45654;-57
2022/08/21 03:44:07;;;;;;;;;4.50;3.75;;;;;20.81;47.77;101078.50;5079143;28;64983;-57
2022/08/21 03:46:32;;;;;;;;;5.00;3.50;;;;;20.79;47.92;101061.78;5081205;27;47523;-57
2022/08/21 03:48:58;;;;;;;;;5.50;4.00;;;;;20.79;48.13;101063.59;5069398;28;63271;-57
2022/08/21 03:51:23;;;;;;;;;3.25;3.25;;;;;20.79;47.85;101068.94;5063317;28;71383;-57
2022/08/21 03:53:49;;;;;;;;;4.50;4.00;;;;;20.79;47.63;101067.13;5073979;27;45636;-57
2022/08/21 03:56:16;;;;;;;;;6.25;4.50;;;;;20.78;47.90;101062.72;5068956;27;45442;-57
2022/08/21 03:58:41;;;;;;;;;5.00;3.75;;;;;20.79;47.79;101068.94;5072841;27;45400;-57
2022/08/21 04:01:07;;;;;;;;;3.00;3.00;;;;;20.80;47.81;101063.47;5069958;27;45285;-58
2022/08/21 04:03:34;;;;;;;;;8.50;4.00;;;;;20.78;48.04;101062.72;5069405;27;45981;-57
2022/08/21 04:06:00;;;;;;;;;6.00;4.25;;;;;20.78;48.01;101060.06;5045719;28;45329;-57
2022/08/21 04:08:25;;;;;;;;;3.50;2.00;;;;;20.80;47.72;101065.28;5074547;27;64625;-56
2022/08/21 04:10:52;;;;;;;;;7.00;4.00;;;;;20.78;48.05;101057.41;5081008;27;45226;-57
2022/08/21 04:13:18;;;;;;;;;4.00;3.00;;;;;20.77;47.67;101054.84;5080397;28;47271;-56
2022/08/21 04:15:43;;;;;;;;;4.75;3.25;;;;;20.77;47.50;101054.84;5068552;27;45383;-57
2022/08/21 04:18:09;;;;;;;;;4.00;3.25;;;;;20.76;47.64;101059.31;5092726;27;45370;-57
2022/08/21 04:20:35;;;;;;;;;2.00;2.00;;;;;20.75;47.80;101070.06;5084080;27;60666;-57
2022/08/21 04:23:01;;;;;;;;;3.00;3.00;;;;;20.76;48.18;101066.47;5068193;28;45448;-56
2022/08/21 04:25:26;;;;;;;;;3.50;3.00;;;;;20.76;47.68;101069.97;5072899;28;45729;-57
2022/08/21 04:27:52;;;;;;;;;8.50;5.00;;;;;20.76;47.88;101077.94;5063400;28;63100;-56
2022/08/21 04:30:18;;;;;;;;;5.00;4.25;;;;;20.76;47.92;101077.09;5067342;27;45242;-58
2022/08/21 04:32:47;;;;;;;;;3.75;3.75;;;;;20.76;48.02;101080.59;5071511;27;46222;-57
2022/08/21 04:35:14;;;;;;;;;9.50;4.00;;;;;20.76;48.10;101085.91;5077975;27;45273;-57
2022/08/21 04:37:39;;;;;;;;;8.50;4.25;;;;;20.76;48.14;101087.75;5078326;28;45240;-57
2022/08/21 04:40:06;;;;;;;;;5.50;3.75;;;;;20.75;47.73;101091.34;5079983;28;63605;-57
2022/08/21 04:42:32;;;;;;;;;6.50;4.00;;;;;20.73;48.06;101091.44;5079153;27;46167;-57
2022/08/21 04:44:58;;;;;;;;;8.25;5.00;;;;;20.75;48.33;101096.66;5042356;28;45420;-57
2022/08/21 04:47:23;;;;;;;;;6.00;4.00;;;;;20.73;48.13;101090.59;5056265;28;45544;-57
2022/08/21 04:49:49;;;;;;;;;5.75;2.00;;;;;20.73;48.16;101094.09;5071246;27;45538;-57
2022/08/21 04:52:20;;;;;;;;;5.00;3.25;;;;;20.72;47.90;101089.75;5073327;28;45306;-57
2022/08/21 04:54:46;;;;;;;;;6.50;3.00;;;;;20.69;47.95;101092.59;5079464;27;45924;-56
2022/08/21 04:57:13;;;;;;;;;4.00;2.00;;;;;20.65;47.89;101094.59;5079337;27;57168;-57
2022/08/21 04:59:44;;;;;;;;;5.75;3.00;;;;;20.63;48.32;101096.50;5049555;28;56347;-57
2022/08/21 05:02:10;;;;;;;;;5.00;2.25;;;;;20.62;48.57;101091.28;5068016;28;46480;-57
2022/08/21 05:04:40;;;;;;;;;5.25;2.25;;;;;20.66;48.10;101100.75;5079506;28;46338;-57
2022/08/21 05:07:10;;;;;;;;;3.00;3.00;;;;;20.67;48.46;101100.66;5072316;27;45472;-57
2022/08/21 05:09:37;;;;;;;;;5.25;3.25;;;;;20.70;48.39;101109.38;5071832;27;45466;-57
2022/08/21 05:12:03;;;;;;;;;2.25;2.25;;;;;20.71;48.32;101103.13;5058319;28;45368;-57
2022/08/21 05:14:28;;;;;;;;;3.00;3.00;;;;;20.72;48.21;101105.69;5071966;27;45177;-57
2022/08/21 05:16:53;;;;;;;;;4.25;4.00;;;;;20.71;48.10;101093.34;5056693;28;60225;-57
2022/08/21 05:19:19;;;;;;;;;8.00;3.75;;;;;20.72;48.55;101091.56;5067139;28;45350;-56
2022/08/21 05:21:47;;;;;;;;;2.50;2.50;;;;;20.67;48.22;101087.38;5068943;28;45572;-57
2022/08/21 05:24:12;;;;;;;;;6.50;5.00;;;;;20.66;48.19;101098.09;5077835;27;45748;-57
2022/08/21 05:26:38;;;;;;;;;5.00;3.00;;;;;20.64;48.39;101094.69;5079223;27;56473;-57
2022/08/21 05:29:04;;;;;;;;;3.25;3.00;;;;;20.63;48.77;101095.66;5080141;27;45438;-56
2022/08/21 05:31:29;;;;;;;;;4.25;4.00;;;;;20.62;48.40;101099.25;5074140;27;45490;-57
2022/08/21 05:33:55;;;;;;;;;5.75;4.00;;;;;20.59;48.42;101094.09;5079927;27;45353;-55
2022/08/21 05:36:20;;;;;;;;;5.00;3.50;;;;;20.58;48.42;101095.06;5043847;27;45379;-56
2022/08/21 05:38:46;;;;;;;;;5.00;3.50;;;;;20.58;48.28;101100.38;5070583;28;59387;-56
2022/08/21 05:41:12;;;;;;;;;5.50;4.00;;;;;20.58;48.46;101106.53;5064272;27;46055;-57
2022/08/21 05:43:37;;;;;;;;;4.00;3.00;;;;;20.57;48.46;101093.34;5071163;28;45229;-56
2022/08/21 05:46:04;;;;;;;;;7.00;4.00;;;;;20.55;48.04;101088.09;5075572;27;45569;-58
2022/08/21 05:48:30;;;;;;;;;3.00;2.75;;;;;20.56;48.11;101096.97;5061798;28;45311;-57
2022/08/21 05:50:56;;;;;;;;;6.00;3.50;;;;;20.55;48.56;101092.59;5078975;27;45470;-57
2022/08/21 05:53:23;;;;;;;;;2.00;2.00;;;;;20.54;48.69;101099.72;5071566;28;45288;-57
2022/08/21 05:55:49;;;;;;;;;5.50;3.00;;;;;20.55;48.83;101111.19;5075734;27;45507;-55
2022/08/21 05:58:19;;;;;;;;;8.50;5.00;;;;;20.55;48.72;101097.91;5058713;28;45336;-57
2022/08/21 06:00:47;;;;;;;;;3.50;2.75;;;;;20.56;48.94;101105.78;5058317;28;45518;-58
2022/08/21 06:03:24;;;;;;;;;5.75;3.75;;;;;20.57;48.66;101111.94;5051763;28;45856;-58
2022/08/21 06:05:49;;;;;;;;;3.75;3.00;;;;;20.55;48.54;101108.53;5044260;28;45387;-58
2022/08/21 06:08:17;;;;;;;;;5.00;3.00;;;;;20.58;48.57;101111.00;5059852;28;45336;-58
2022/08/21 06:10:43;;;;;;;;;4.75;3.00;;;;;20.55;48.45;101093.44;5077833;27;45523;-58
2022/08/21 06:13:08;;;;;;;;;5.50;3.50;;;;;20.62;48.77;101112.53;5069069;28;45757;-57
2022/08/21 06:15:34;;;;;;;;;4.75;2.75;;;;;20.63;48.57;101115.13;5077444;27;62600;-57
2022/08/21 06:17:59;;;;;;;;;6.50;3.50;;;;;20.64;48.27;101110.63;5067095;28;57410;-57
2022/08/21 06:20:25;;;;;;;;;4.00;2.75;;;;;20.63;48.41;101109.78;5039931;28;70366;-58
2022/08/21 06:22:50;;;;;;;;;4.50;3.00;;;;;20.62;48.87;101107.22;5070233;28;45278;-58
2022/08/21 06:25:16;;;;;;;;;5.25;5.00;;;;;20.61;48.58;101097.50;5059630;28;45444;-58
2022/08/21 06:27:41;;;;;;;;;6.75;4.25;;;;;20.61;48.16;101102.81;5077920;28;45281;-58
2022/08/21 06:30:07;;;;;;;;;6.25;3.00;;;;;20.61;48.39;101100.16;5077410;27;45402;-58
2022/08/21 06:32:33;;;;;;;;;5.75;3.00;;;;;20.62;48.74;101096.59;5078695;27;45892;-57
2022/08/21 06:34:59;;;;;;;;;4.50;4.00;;;;;20.66;48.41;101101.63;5078690;27;45396;-58
2022/08/21 06:37:24;;;;;;;;;2.50;2.25;;;;;20.71;48.23;101103.97;5078336;27;71437;-57
2022/08/21 06:39:49;;;;;;;;;3.75;3.00;;;;;20.76;48.26;101104.53;5041447;28;46406;-58
2022/08/21 06:42:16;;;;;;;;;3.25;3.25;;;;;20.82;48.30;101103.28;5060892;28;45321;-58
2022/08/21 06:44:42;;;;;;;;;6.00;4.00;;;;;20.86;48.33;101094.19;5090810;27;45476;-59
2022/08/21 06:47:08;;;;;;;;;3.50;3.00;;;;;20.91;48.19;101086.75;5060977;28;45297;-56
2022/08/21 06:49:34;;;;;;;;;4.50;4.00;;;;;20.95;48.08;101082.94;5080350;27;45179;-57
2022/08/21 06:52:00;;;;;;;;;5.00;4.00;;;;;20.98;48.29;101079.22;5072920;27;45347;-57
2022/08/21 06:54:25;;;;;;;;;5.00;3.00;;;;;21.00;47.80;101078.16;5064818;27;45297;-57
2022/08/21 06:56:50;;;;;;;;;5.50;4.25;;;;;21.00;47.66;101075.50;5081264;27;45670;-58
2022/08/21 06:59:16;;;;;;;;;5.00;4.75;;;;;21.03;47.78;101077.97;5051722;27;45274;-59
2022/08/21 07:01:41;;;;;;;;;4.00;4.00;;;;;21.10;48.10;101082.88;5081664;28;45272;-58
2022/08/21 07:04:07;;;;;;;;;3.75;3.75;;;;;21.18;47.73;101085.91;5080295;28;45201;-58
2022/08/21 07:06:32;;;;;;;;;5.00;5.00;;;;;21.23;47.67;101079.31;5078770;27;45709;-58
2022/08/21 07:08:57;;;;;;;;;5.00;4.00;;;;;21.30;48.12;101081.56;5066335;27;65447;-58
2022/08/21 07:11:24;;;;;;;;;7.25;4.25;;;;;21.38;47.60;101079.25;5063340;27;70326;-58
2022/08/21 07:13:52;;;;;;;;;5.75;4.25;;;;;21.43;47.30;101077.13;5080135;27;45333;-58
2022/08/21 07:16:18;;;;;;;;;4.00;4.00;;;;;21.48;47.56;101083.03;5080893;27;45573;-58
2022/08/21 07:18:44;;;;;;;;;6.75;5.00;;;;;21.52;47.17;101081.00;5058827;28;45531;-58
2022/08/21 07:21:09;;;;;;;;;6.25;4.00;;;;;21.55;46.91;101080.81;5072493;27;67869;-58
2022/08/21 07:23:38;;;;;;;;;6.25;5.00;;;;;21.59;47.01;101085.81;5074442;27;45313;-58
2022/08/21 07:26:04;;;;;;;;;7.50;3.75;;;;;21.62;47.02;101082.09;5063288;27;45471;-58
2022/08/21 07:28:30;;;;;;;;;5.50;4.25;;;;;21.65;47.33;101078.34;5072455;27;45259;-58
2022/08/21 07:30:57;;;;;;;;;6.25;4.25;;;;;21.65;46.83;101086.34;5067400;27;45517;-58
2022/08/21 07:33:24;;;;;;;;;5.00;3.50;;;;;21.67;46.99;101081.75;5078603;28;45527;-58
2022/08/21 07:35:50;;;;;;;;;5.25;4.25;;;;;21.70;47.30;101076.25;5053786;28;45428;-59
2022/08/21 07:38:15;;;;;;;;;6.00;4.50;;;;;21.76;47.10;101082.00;5065502;28;48136;-58
2022/08/21 07:40:40;;;;;;;;;6.50;3.25;;;;;21.78;46.90;101080.09;5078436;27;45253;-58
2022/08/21 07:43:06;;;;;;;;;5.25;5.00;;;;;21.86;46.58;101076.03;5079410;27;46249;-60
2022/08/21 07:45:31;;;;;;;;;5.25;4.00;;;;;21.91;46.42;101072.09;5070120;28;45228;-57
2022/08/21 07:47:57;;;;;;;;;5.00;4.75;;;;;21.97;46.88;101068.13;5048950;28;47963;-58
2022/08/21 07:50:23;;;;;;;;;8.50;5.00;;;;;22.03;46.84;101072.19;5073258;27;45435;-57
2022/08/21 07:52:48;;;;;;;;;8.00;6.00;;;;;22.09;46.42;101079.75;5056630;28;45322;-57
2022/08/21 07:55:16;;;;;;;;;7.50;5.00;;;;;22.17;46.32;101069.44;5072858;28;45322;-57
2022/08/21 07:57:41;;;;;;;;;6.50;6.00;;;;;22.23;46.60;101079.63;5061675;27;47208;-58
2022/08/21 08:00:10;;;;;;;;;5.00;4.25;;;;;22.27;46.19;101072.31;5070511;28;45304;-58
2022/08/21 08:02:36;;;;;;;;;6.00;4.25;;;;;22.32;45.97;101068.34;5079510;27;45428;-58
2022/08/21 08:05:03;;;;;;;;;4.75;4.25;;;;;22.37;46.10;101062.69;5081348;27;45245;-58
2022/08/21 08:07:29;;;;;;;;;10.00;5.50;;;;;22.43;45.81;101064.91;5076079;27;47259;-58
2022/08/21 08:09:54;;;;;;;;;5.50;3.50;;;;;22.48;45.65;101065.44;5073280;27;45332;-58
2022/08/21 08:12:20;;;;;;;;;5.75;4.50;;;;;22.55;45.56;101058.69;5074409;28;58593;-59
2022/08/21 08:14:46;;;;;;;;;5.75;4.00;;;;;22.64;45.82;101065.19;5077745;27;45415;-58
2022/08/21 08:17:13;;;;;;;;;7.00;4.00;;;;;22.73;45.84;101061.88;5074523;28;46988;-58
2022/08/21 08:19:38;;;;;;;;;6.25;5.00;;;;;22.82;45.41;101068.31;5070092;27;45179;-58
2022/08/21 08:22:13;;;;;;;;;5.75;4.50;;;;;22.89;45.37;101060.72;5075048;28;45455;-57
2022/08/21 08:24:39;;;;;;;;;5.00;5.00;;;;;22.98;45.13;101060.03;5074334;27;45239;-58
2022/08/21 08:27:05;;;;;;;;;6.00;5.00;;;;;23.06;45.15;101054.16;5061873;28;45900;-58
2022/08/21 08:29:30;;;;;;;;;8.00;5.00;;;;;23.14;44.55;101054.44;5073982;28;45270;-58
2022/08/21 08:31:56;;;;;;;;;5.25;3.75;;;;;23.22;44.60;101062.72;5073181;27;45594;-58
2022/08/21 08:34:22;;;;;;;;;6.75;5.75;;;;;23.31;43.96;101059.34;5065839;27;45459;-56
2022/08/21 08:36:48;;;;;;;;;3.00;3.00;;;;;23.39;44.21;101066.81;5061069;28;46961;-58
2022/08/21 08:39:13;;;;;;;;;5.50;4.00;;;;;23.45;43.63;101052.97;5073483;28;45380;-58
2022/08/21 08:41:40;;;;;;;;;6.75;4.00;;;;;23.50;42.92;101057.97;5078527;27;50419;-58
2022/08/21 08:44:07;;;;;;;;;5.50;4.00;;;;;23.55;43.45;101055.81;5060420;28;45522;-58
2022/08/21 08:46:42;;;;;;;;;4.75;3.00;;;;;23.60;42.70;101055.44;5075476;27;46511;-57
2022/08/21 08:49:14;;;;;;;;;5.75;3.75;;;;;23.63;43.22;101052.53;5061823;28;45620;-57
2022/08/21 08:51:47;;;;;;;;;5.50;4.00;;;;;23.69;42.63;101055.59;5051478;28;45437;-57
2022/08/21 08:54:20;;;;;;;;;3.25;2.25;;;;;23.76;42.49;101047.94;5061705;28;45586;-58
2022/08/21 08:56:46;;;;;;;;;6.25;4.00;;;;;23.83;42.75;101048.34;5080323;27;46106;-57
2022/08/21 08:59:15;;;;;;;;;5.25;3.50;;;;;23.89;42.99;101042.53;5065128;28;46228;-58
2022/08/21 09:01:41;;;;;;;;;3.00;2.75;;;;;23.94;42.23;101048.34;5053794;28;45509;-58
2022/08/21 09:04:07;;;;;;;;;4.50;3.50;;;;;23.97;42.39;101042.75;5060260;28;45534;-58
2022/08/21 09:06:54;;;;;;;;;8.00;3.50;;;;;24.01;41.82;101032.66;5051251;28;47118;-57
2022/08/21 09:09:52;;;;;;;;;9.00;6.00;;;;;24.09;41.97;101038.25;5079537;28;45179;-57
2022/08/21 09:12:38;;;;;;;;;3.25;2.75;;;;;24.17;41.96;101033.16;5037500;28;45486;-58
2022/08/21 09:15:23;;;;;;;;;7.75;3.00;;;;;24.23;42.07;101031.81;5049292;28;45424;-57
2022/08/21 09:18:07;;;;;;;;;3.00;3.00;;;;;24.28;41.46;101024.28;5079258;28;45477;-57
2022/08/21 09:20:48;;;;;;;;;3.00;2.25;;;;;24.35;41.43;101017.47;5062099;28;45715;-57
2022/08/21 09:23:42;;;;;;;;;3.25;2.00;;;;;24.56;41.27;101022.94;5068863;27;45347;-57
2022/08/21 09:26:20;;;;;;;;;4.50;3.25;;;;;24.90;41.48;101021.97;5073571;27;45279;-56
2022/08/21 09:28:47;;;;;;;;;4.00;4.00;;;;;25.20;40.64;101010.53;5061755;28;46248;-56
2022/08/21 09:31:19;;;;;;;;;3.00;3.00;;;;;25.54;39.88;101021.06;5054229;28;45960;-57
2022/08/21 09:33:44;;;;;;;;;8.25;5.50;;;;;25.89;39.25;101019.84;5061964;28;45236;-57
2022/08/21 09:36:10;;;;;;;;;3.25;2.75;;;;;26.16;39.47;101015.75;5071778;27;74384;-57
2022/08/21 09:38:37;;;;;;;;;9.75;3.75;;;;;26.32;38.74;101014.22;5059172;28;68191;-57
2022/08/21 09:41:08;;;;;;;;;6.00;3.00;;;;;26.40;37.21;101018.94;5079199;27;45337;-58
2022/08/21 09:43:34;;;;;;;;;3.00;3.00;;;;;26.44;38.70;101019.50;5066292;28;45390;-58
2022/08/21 09:46:11;;;;;;;;;4.25;3.75;;;;;26.68;37.56;101019.13;5079960;27;45352;-57
2022/08/21 09:48:47;;;;;;;;;4.25;3.00;;;;;26.96;37.27;101016.63;5069982;27;46808;-58
2022/08/21 09:51:20;;;;;;;;;7.50;4.00;;;;;27.33;36.72;101023.97;5067220;27;45174;-57
2022/08/21 09:53:49;;;;;;;;;37.25;29.25;;;;;27.78;35.98;101017.91;5079579;27;45371;-56
2022/08/21 09:59:17;;;;;;;;;5.50;3.00;;;;;28.71;34.66;101010.69;5079389;27;45387;-57
2022/08/21 10:01:48;;;;;;;;;5.75;2.50;;;;;29.06;34.94;101003.59;5078689;28;45372;-57
2022/08/21 10:04:14;;;;;;;;;2.50;2.00;;;;;29.42;34.55;101000.84;5065219;27;45449;-57
2022/08/21 10:06:39;;;;;;;;;3.50;3.50;;;;;29.53;33.70;101000.59;5068270;27;56421;-60
2022/08/21 10:09:17;;;;;;;;;4.75;3.75;;;;;29.47;33.25;100997.69;5061170;27;45906;-56
2022/08/21 10:11:51;;;;;;;;;3.00;3.00;;;;;29.45;33.53;100987.06;5060445;27;45281;-55
2022/08/21 10:14:25;;;;;;;;;5.50;3.00;;;;;29.57;33.68;100982.25;5052134;28;45213;-56
2022/08/21 10:17:10;;;;;;;;;2.00;1.25;;;;;29.79;32.68;100983.56;5061031;27;45260;-56
2022/08/21 10:19:57;;;;;;;;;3.75;2.50;;;;;29.69;33.22;100980.97;5076515;27;45656;-57
2022/08/21 10:22:29;;;;;;;;;1.25;1.25;;;;;29.29;32.65;100976.16;5076347;27;45757;-57
2022/08/21 10:25:10;;;;;;;;;5.00;1.50;;;;;28.90;32.65;100974.66;5076657;27;45296;-57
2022/08/21 10:28:03;;;;;;;;;2.00;1.50;;;;;28.56;33.12;100978.06;5078443;27;45407;-57
2022/08/21 10:30:36;;;;;;;;;4.25;2.75;;;;;28.27;33.27;100961.22;5072152;27;45565;-57
2022/08/21 10:33:27;;;;;;;;;6.00;3.50;;;;;27.97;33.82;100955.16;5058649;27;45390;-57
2022/08/21 10:36:17;;;;;;;;;4.50;2.75;;;;;27.71;33.82;100950.44;5076566;28;45418;-54
2022/08/21 10:39:00;;;;;;;;;2.50;2.00;;;;;27.52;34.01;100953.22;5051509;28;45284;-57
2022/08/21 10:41:42;;;;;;;;;3.25;3.00;;;;;27.34;34.59;100955.78;5076179;27;47185;-56
2022/08/21 10:44:23;;;;;;;;;2.50;2.50;;;;;27.21;34.38;100954.22;5065669;28;45616;-57
2022/08/21 10:46:57;;;;;;;;;4.00;2.75;;;;;27.10;34.56;100957.09;5061655;28;45312;-56
2022/08/21 10:49:26;;;;;;;;;3.00;2.00;;;;;27.02;35.30;100955.13;5075420;27;45649;-56
2022/08/21 10:52:21;;;;;;;;;4.25;3.00;;;;;26.96;35.56;100939.56;5058979;28;45406;-56
2022/08/21 10:54:54;;;;;;;;;4.50;3.75;;;;;26.88;35.06;100934.91;5043221;28;45783;-57
2022/08/21 10:57:29;;;;;;;;;6.75;4.75;;;;;26.81;35.52;100930.28;5038732;28;45396;-55
2022/08/21 10:59:59;;;;;;;;;3.50;3.00;;;;;26.83;35.05;100928.28;5060834;28;45332;-57
2022/08/21 11:02:36;;;;;;;;;3.00;2.00;;;;;26.90;36.04;100935.63;5048935;28;46312;-57
2022/08/21 11:05:08;;;;;;;;;5.25;3.75;;;;;26.91;35.82;100933.78;5043265;28;45721;-56
2022/08/21 11:07:42;;;;;;;;;3.25;3.25;;;;;26.92;35.35;100927.44;5060409;28;45424;-56
2022/08/21 11:10:21;;;;;;;;;5.00;3.00;;;;;26.93;35.13;100930.94;5078767;28;45291;-55
2022/08/21 11:12:52;;;;;;;;;6.75;2.25;;;;;26.89;35.52;100930.38;5059359;28;46463;-56
2022/08/21 11:15:34;;;;;;;;;4.00;2.25;;;;;26.89;35.23;100927.69;5059204;28;45246;-57
2022/08/21 11:18:09;;;;;;;;;4.50;2.00;;;;;26.88;35.91;100932.22;5060272;28;45356;-57
2022/08/21 11:20:43;;;;;;;;;5.00;2.25;;;;;26.79;35.22;100949.22;5075525;28;45380;-56
2022/08/21 11:23:15;;;;;;;;;3.00;3.00;;;;;26.77;35.37;100953.84;5047249;28;46049;-57
2022/08/21 11:25:45;;;;;;;;;6.25;4.00;;;;;26.78;35.44;100954.72;5058782;28;45712;-57
2022/08/21 11:28:33;;;;;;;;;2.75;2.75;;;;;26.79;35.23;100948.34;5047126;28;45309;-57
2022/08/21 11:31:22;;;;;;;;;2.00;1.25;;;;;26.83;35.41;100950.63;5077661;27;45417;-57
2022/08/21 11:33:56;;;;;;;;;2.75;1.25;;;;;26.88;35.21;100955.56;5068867;27;46578;-57